createdAt,value
2018-02-12T00:01:55.860Z,5.80
2018-02-12T00:04:24.113Z,4.40
2018-02-12T00:06:52.373Z,4.87
2018-02-12T00:09:20.630Z,6.00
2018-02-12T00:11:49.665Z,4.60
2018-02-12T00:14:17.907Z,4.13
2018-02-12T00:16:46.929Z,4.20
2018-02-12T00:19:15.203Z,4.97
2018-02-12T00:21:44.216Z,4.57
2018-02-12T00:24:12.514Z,4.90
2018-02-12T00:26:40.766Z,5.20
2018-02-12T00:29:09.019Z,5.37
2018-02-12T00:31:37.261Z,4.10
2018-02-12T00:34:05.532Z,4.33
2018-02-12T00:36:33.801Z,4.60
2018-02-12T00:39:02.190Z,5.90
2018-02-12T00:41:30.482Z,5.30
2018-02-12T00:43:58.740Z,4.10
2018-02-12T00:46:26.980Z,4.80
2018-02-12T00:48:55.249Z,5.03
2018-02-12T00:51:23.487Z,4.50
2018-02-12T00:53:51.737Z,5.47
2018-02-12T00:56:20.752Z,4.50
2018-02-12T00:58:49.760Z,4.50
2018-02-12T01:01:18.002Z,4.60
2018-02-12T01:03:46.329Z,4.13
2018-02-12T01:06:14.574Z,5.07
2018-02-12T01:08:43.601Z,4.53
2018-02-12T01:11:11.851Z,4.43
2018-02-12T01:13:40.934Z,4.33
2018-02-12T01:16:09.165Z,4.50
2018-02-12T01:18:37.461Z,4.70
2018-02-12T01:21:05.716Z,5.13
2018-02-12T01:23:34.017Z,4.17
2018-02-12T01:26:02.277Z,4.13
2018-02-12T01:28:30.524Z,4.43
2018-02-12T01:30:58.769Z,4.13
2018-02-12T01:33:27.001Z,4.63
2018-02-12T01:35:56.033Z,4.70
2018-02-12T01:38:24.268Z,4.17
2018-02-12T01:40:52.529Z,4.10
2018-02-12T01:43:20.778Z,3.70
2018-02-12T01:45:49.031Z,3.80
2018-02-12T01:48:18.066Z,3.57
2018-02-12T01:50:46.358Z,3.30
2018-02-12T01:53:14.633Z,3.57
2018-02-12T01:55:42.914Z,3.00
2018-02-12T01:58:11.197Z,3.63
2018-02-12T02:00:39.449Z,3.90
2018-02-12T02:03:07.765Z,4.05
2018-02-12T02:05:36.029Z,2.60
2018-02-12T02:08:04.267Z,3.70
2018-02-12T02:10:32.517Z,2.80
2018-02-12T02:13:00.761Z,3.30
2018-02-12T02:15:29.024Z,4.43
2018-02-12T02:17:58.023Z,3.53
2018-02-12T02:20:27.026Z,4.53
2018-02-12T02:22:56.052Z,5.10
2018-02-12T02:25:24.305Z,2.50
2018-02-12T02:27:53.332Z,2.73
2018-02-12T02:30:21.813Z,2.90
2018-02-12T02:32:50.814Z,4.60
2018-02-12T02:35:19.729Z,2.28
2018-02-12T02:37:47.995Z,3.70
2018-02-12T02:40:16.885Z,3.07
2018-02-12T02:42:45.137Z,3.33
2018-02-12T02:45:14.142Z,3.57
2018-02-12T02:47:43.209Z,3.30
2018-02-12T02:50:11.425Z,2.83
2018-02-12T02:52:39.706Z,4.37
2018-02-12T02:55:07.966Z,4.30
2018-02-12T02:57:37.049Z,4.27
2018-02-12T03:00:05.259Z,3.10
2018-02-12T03:02:33.584Z,3.20
2018-02-12T03:05:01.827Z,3.40
2018-02-12T03:07:30.097Z,3.10
2018-02-12T03:09:59.108Z,3.63
2018-02-12T03:12:27.361Z,3.20
2018-02-12T03:14:55.596Z,3.20
2018-02-12T03:17:24.990Z,3.33
2018-02-12T03:19:53.230Z,3.17
2018-02-12T03:22:22.318Z,3.40
2018-02-12T03:24:52.064Z,2.80
2018-02-12T03:27:20.354Z,3.57
2018-02-12T03:29:49.392Z,3.33
2018-02-12T03:32:17.651Z,3.07
2018-02-12T03:34:46.009Z,3.17
2018-02-12T03:37:14.321Z,3.90
2018-02-12T03:39:42.618Z,3.53
2018-02-12T03:42:10.880Z,3.60
2018-02-12T03:44:39.169Z,3.50
2018-02-12T03:47:07.461Z,3.30
2018-02-12T03:49:35.744Z,4.18
2018-02-12T03:52:03.998Z,3.63
2018-02-12T03:54:32.233Z,3.23
2018-02-12T03:57:00.589Z,3.17
2018-02-12T03:59:28.832Z,3.67
2018-02-12T04:01:57.865Z,3.33
2018-02-12T04:04:26.125Z,2.90
2018-02-12T04:06:54.384Z,3.40
2018-02-12T04:09:22.620Z,3.43
2018-02-12T04:11:50.881Z,3.03
2018-02-12T04:14:19.134Z,3.30
2018-02-12T04:16:48.174Z,2.70
2018-02-12T04:19:16.417Z,3.58
2018-02-12T04:21:45.449Z,3.43
2018-02-12T04:24:13.690Z,3.70
2018-02-12T04:26:42.732Z,3.60
2018-02-12T04:29:10.966Z,4.93
2018-02-12T04:31:39.290Z,3.53
2018-02-12T04:34:07.616Z,2.37
2018-02-12T04:36:35.899Z,3.70
2018-02-12T04:39:04.119Z,2.97
2018-02-12T04:41:33.249Z,2.83
2018-02-12T04:44:01.493Z,3.07
2018-02-12T04:46:30.525Z,3.00
2018-02-12T04:48:58.774Z,3.10
2018-02-12T04:51:27.805Z,3.97
2018-02-12T04:53:56.062Z,3.85
2018-02-12T04:56:24.326Z,3.30
2018-02-12T04:58:53.356Z,4.00
2018-02-12T05:01:21.604Z,3.67
2018-02-12T05:03:50.636Z,3.90
2018-02-12T05:06:18.877Z,3.57
2018-02-12T05:08:47.890Z,3.50
2018-02-12T05:11:16.137Z,4.17
2018-02-12T05:13:44.395Z,2.90
2018-02-12T05:16:12.653Z,3.03
2018-02-12T05:18:40.933Z,3.30
2018-02-12T05:21:09.178Z,3.20
2018-02-12T05:23:38.214Z,3.10
2018-02-12T05:26:06.466Z,3.20
2018-02-12T05:28:35.498Z,3.20
2018-02-12T05:31:03.727Z,3.17
2018-02-12T05:33:32.750Z,3.77
2018-02-12T05:36:00.994Z,4.07
2018-02-12T05:38:29.256Z,2.73
2018-02-12T05:40:57.488Z,3.43
2018-02-12T05:43:25.798Z,3.90
2018-02-12T05:45:54.114Z,3.80
2018-02-12T05:48:22.348Z,3.60
2018-02-12T05:50:50.597Z,3.60
2018-02-12T05:53:19.623Z,3.63
2018-02-12T05:55:47.860Z,4.03
2018-02-12T05:58:16.117Z,3.53
2018-02-12T06:00:44.365Z,3.77
2018-02-12T06:03:12.631Z,3.97
2018-02-12T06:05:40.875Z,3.92
2018-02-12T06:08:09.249Z,3.85
2018-02-12T06:10:37.494Z,4.43
2018-02-12T06:13:05.757Z,4.30
2018-02-12T06:15:34.006Z,3.62
2018-02-12T06:18:02.382Z,3.60
2018-02-12T06:20:30.578Z,4.27
2018-02-12T06:22:58.916Z,4.28
2018-02-12T06:25:27.151Z,5.60
2018-02-12T06:27:56.179Z,6.30
2018-02-12T06:30:24.469Z,3.25
2018-02-12T06:32:52.741Z,3.17
2018-02-12T06:35:21.055Z,3.42
2018-02-12T06:37:49.344Z,3.40
2018-02-12T06:40:17.583Z,3.50
2018-02-12T06:42:45.861Z,3.40
2018-02-12T06:45:14.110Z,3.30
2018-02-12T06:47:43.187Z,3.40
2018-02-12T06:50:11.426Z,3.90
2018-02-12T06:52:39.768Z,4.27
2018-02-12T06:55:08.011Z,4.80
2018-02-12T06:57:36.304Z,3.80
2018-02-12T07:00:04.619Z,3.77
2018-02-12T07:02:32.874Z,3.70
2018-02-12T07:05:01.123Z,3.90
2018-02-12T07:07:29.413Z,4.47
2018-02-12T07:09:57.661Z,3.97
2018-02-12T07:12:26.685Z,3.80
2018-02-12T07:14:54.941Z,4.40
2018-02-12T07:17:23.182Z,3.73
2018-02-12T07:19:51.447Z,3.70
2018-02-12T07:22:19.817Z,3.50
2018-02-12T07:24:48.118Z,3.43
2018-02-12T07:27:16.357Z,3.33
2018-02-12T07:29:44.606Z,4.03
2018-02-12T07:32:12.880Z,3.67
2018-02-12T07:34:41.977Z,4.07
2018-02-12T07:37:10.316Z,3.50
2018-02-12T07:39:38.651Z,4.30
2018-02-12T07:42:06.913Z,4.20
2018-02-12T07:44:35.152Z,4.10
2018-02-12T07:47:03.466Z,4.40
2018-02-12T07:49:31.725Z,4.30
2018-02-12T07:51:59.982Z,4.95
2018-02-12T07:54:28.251Z,4.05
2018-02-12T07:56:57.245Z,4.70
2018-02-12T07:59:26.265Z,4.30
2018-02-12T08:01:54.523Z,3.63
2018-02-12T08:04:22.772Z,4.07
2018-02-12T08:06:51.011Z,4.80
2018-02-12T08:09:19.274Z,3.77
2018-02-12T08:11:48.290Z,4.63
2018-02-12T08:14:16.557Z,3.70
2018-02-12T08:16:45.552Z,4.03
2018-02-12T08:19:14.571Z,4.00
2018-02-12T08:21:42.828Z,3.73
2018-02-12T08:24:11.905Z,3.87
2018-02-12T08:26:40.118Z,3.87
2018-02-12T08:29:09.143Z,4.20
2018-02-12T08:31:37.378Z,4.40
2018-02-12T08:34:05.623Z,3.43
2018-02-12T08:36:33.855Z,4.10
2018-02-12T08:39:02.897Z,4.20
2018-02-12T08:41:31.170Z,4.23
2018-02-12T08:43:59.489Z,5.00
2018-02-12T08:46:27.731Z,4.50
2018-02-12T08:48:55.983Z,3.83
2018-02-12T08:51:24.294Z,4.47
2018-02-12T08:53:52.536Z,4.43
2018-02-12T08:56:21.545Z,4.53
2018-02-12T08:58:49.793Z,5.40
2018-02-12T09:01:18.047Z,4.63
2018-02-12T09:03:46.449Z,6.53
2018-02-12T09:06:14.693Z,5.33
2018-02-12T09:08:43.579Z,4.90
2018-02-12T09:11:11.799Z,5.43
2018-02-12T09:13:40.053Z,4.77
2018-02-12T09:16:08.343Z,4.83
2018-02-12T09:18:36.598Z,5.00
2018-02-12T09:21:04.889Z,5.17
2018-02-12T09:23:33.197Z,5.10
2018-02-12T09:26:01.499Z,5.50
2018-02-12T09:28:29.738Z,5.53
2018-02-12T09:31:03.996Z,6.15
2018-02-12T09:33:32.333Z,6.80
2018-02-12T09:36:00.577Z,6.80
2018-02-12T09:38:29.709Z,6.00
2018-02-12T09:40:58.521Z,5.50
2018-02-12T09:43:26.975Z,5.93
2018-02-12T09:45:57.075Z,5.70
2018-02-12T09:48:25.311Z,5.40
2018-02-12T09:50:53.576Z,4.87
2018-02-12T09:53:21.863Z,5.37
2018-02-12T09:55:50.117Z,5.90
2018-02-12T09:58:18.368Z,4.93
2018-02-12T10:00:46.617Z,4.83
2018-02-12T10:03:14.881Z,4.77
2018-02-12T10:05:43.113Z,5.40
2018-02-12T10:08:12.142Z,5.20
2018-02-12T10:10:40.389Z,5.07
2018-02-12T10:13:08.647Z,4.90
2018-02-12T10:15:36.954Z,4.07
2018-02-12T10:18:05.407Z,4.13
2018-02-12T10:20:33.669Z,4.40
2018-02-12T10:23:04.010Z,3.93
2018-02-12T10:25:30.475Z,4.70
2018-02-12T10:27:59.556Z,4.80
2018-02-12T10:30:27.822Z,4.33
2018-02-12T10:32:56.078Z,4.30
2018-02-12T10:35:24.317Z,4.57
2018-02-12T10:37:52.658Z,4.30
2018-02-12T10:40:20.947Z,4.80
2018-02-12T10:42:49.207Z,3.80
2018-02-12T10:45:17.539Z,4.40
2018-02-12T10:47:45.778Z,3.90
2018-02-12T10:50:14.046Z,4.57
2018-02-12T10:52:43.066Z,4.27
2018-02-12T10:55:11.346Z,3.27
2018-02-12T10:57:39.634Z,3.80
2018-02-12T11:00:07.875Z,3.67
2018-02-12T11:02:36.882Z,3.70
2018-02-12T11:05:05.153Z,3.03
2018-02-12T11:07:34.208Z,3.20
2018-02-12T11:10:02.571Z,4.50
2018-02-12T11:12:30.842Z,3.40
2018-02-12T11:14:59.853Z,3.43
2018-02-12T11:17:28.076Z,3.27
2018-02-12T11:19:57.106Z,3.00
2018-02-12T11:22:25.343Z,3.57
2018-02-12T11:24:53.698Z,2.90
2018-02-12T11:27:21.943Z,3.03
2018-02-12T11:29:51.081Z,3.20
2018-02-12T11:32:19.354Z,3.17
2018-02-12T11:34:47.656Z,3.60
2018-02-12T11:37:15.919Z,3.53
2018-02-12T11:39:44.174Z,4.13
2018-02-12T11:42:13.196Z,4.17
2018-02-12T11:44:41.486Z,3.40
2018-02-12T11:47:09.727Z,3.80
2018-02-12T11:49:38.034Z,2.93
2018-02-12T11:52:06.273Z,3.50
2018-02-12T11:54:35.294Z,3.07
2018-02-12T11:57:03.551Z,2.90
2018-02-12T11:59:32.600Z,2.57
2018-02-12T12:02:00.898Z,3.23
2018-02-12T12:04:29.126Z,3.30
2018-02-12T12:06:58.133Z,2.83
2018-02-12T12:09:26.389Z,3.50
2018-02-12T12:11:54.682Z,3.10
2018-02-12T12:14:22.985Z,3.17
2018-02-12T12:16:52.023Z,3.03
2018-02-12T12:19:20.270Z,2.93
2018-02-12T12:21:48.509Z,3.03
2018-02-12T12:24:17.549Z,2.83
2018-02-12T12:26:45.793Z,3.10
2018-02-12T12:29:14.810Z,4.00
2018-02-12T12:31:43.055Z,3.00
2018-02-12T12:34:11.397Z,3.00
2018-02-12T12:36:39.635Z,3.77
2018-02-12T12:39:08.915Z,3.03
2018-02-12T12:41:37.307Z,3.00
2018-02-12T12:44:05.794Z,2.77
2018-02-12T12:46:34.045Z,2.53
2018-02-12T12:49:02.322Z,2.63
2018-02-12T12:51:30.550Z,2.70
2018-02-12T12:53:59.576Z,3.03
2018-02-12T12:56:27.816Z,3.17
2018-02-12T12:58:56.151Z,2.53
2018-02-12T13:01:24.394Z,2.50
2018-02-12T13:03:53.417Z,2.33
2018-02-12T13:06:21.649Z,3.10
2018-02-12T13:08:49.907Z,2.47
2018-02-12T13:11:18.151Z,2.50
2018-02-12T13:13:46.464Z,2.13
2018-02-12T13:16:14.705Z,2.83
2018-02-12T13:18:43.798Z,2.87
2018-02-12T13:21:12.071Z,2.70
2018-02-12T13:23:40.332Z,2.47
2018-02-12T13:26:08.590Z,3.03
2018-02-12T13:28:36.868Z,2.40
2018-02-12T13:31:05.121Z,2.67
2018-02-12T13:33:34.188Z,2.80
2018-02-12T13:36:03.253Z,2.80
2018-02-12T13:38:32.265Z,2.93
2018-02-12T13:41:00.521Z,2.23
2018-02-12T13:43:28.778Z,3.87
2018-02-12T13:45:57.672Z,3.47
2018-02-12T13:48:26.707Z,2.63
2018-02-12T13:50:55.020Z,2.77
2018-02-12T13:53:23.235Z,2.20
2018-02-12T13:55:52.265Z,2.30
2018-02-12T13:58:20.518Z,2.27
2018-02-12T14:00:49.538Z,2.20
2018-02-12T14:03:18.321Z,3.33
2018-02-12T14:05:46.613Z,2.60
2018-02-12T14:08:14.862Z,2.53
2018-02-12T14:10:43.884Z,2.20
2018-02-12T14:13:12.177Z,2.73
2018-02-12T14:15:40.442Z,2.47
2018-02-12T14:18:08.683Z,2.90
2018-02-12T14:20:36.938Z,2.73
2018-02-12T14:23:05.183Z,2.97
2018-02-12T14:25:34.327Z,2.40
2018-02-12T14:28:02.558Z,2.20
2018-02-12T14:30:30.818Z,1.90
2018-02-12T14:32:59.052Z,2.50
2018-02-12T14:35:27.304Z,2.50
2018-02-12T14:37:55.537Z,2.90
2018-02-12T14:40:23.793Z,3.10
2018-02-12T14:42:52.047Z,3.30
2018-02-12T14:45:20.315Z,2.97
2018-02-12T14:47:49.331Z,2.70
2018-02-12T14:50:17.589Z,2.73
2018-02-12T14:52:46.589Z,2.20
2018-02-12T14:55:15.637Z,2.33
2018-02-12T14:57:43.904Z,2.50
2018-02-12T15:00:12.166Z,2.03
2018-02-12T15:02:40.402Z,2.57
2018-02-12T15:05:08.657Z,2.20
2018-02-12T15:07:36.897Z,2.73
2018-02-12T15:10:05.923Z,2.37
2018-02-12T15:12:34.181Z,2.40
2018-02-12T15:15:02.434Z,2.27
2018-02-12T15:17:30.669Z,2.40
2018-02-12T15:19:58.981Z,2.30
2018-02-12T15:22:27.236Z,2.43
2018-02-12T15:24:55.521Z,2.90
2018-02-12T15:27:23.758Z,2.30
2018-02-12T15:29:52.802Z,2.10
2018-02-12T15:32:21.043Z,2.87
2018-02-12T15:34:50.199Z,3.10
2018-02-12T15:37:18.442Z,2.43
2018-02-12T15:39:46.702Z,2.07
2018-02-12T15:42:15.733Z,2.23
2018-02-12T15:44:44.015Z,2.27
2018-02-12T15:47:12.301Z,2.30
2018-02-12T15:49:40.592Z,2.13
2018-02-12T15:52:08.828Z,3.60
2018-02-12T15:54:37.894Z,2.70
2018-02-12T15:57:06.150Z,3.67
2018-02-12T15:59:34.407Z,2.53
2018-02-12T16:02:02.665Z,2.33
2018-02-12T16:04:31.706Z,2.30
2018-02-12T16:06:59.991Z,1.83
2018-02-12T16:09:28.281Z,2.60
2018-02-12T16:11:56.552Z,2.00
2018-02-12T16:14:24.877Z,1.87
2018-02-12T16:16:53.218Z,2.20
2018-02-12T16:19:21.470Z,3.00
2018-02-12T16:21:49.743Z,2.53
2018-02-12T16:24:18.843Z,2.50
2018-02-12T16:26:47.878Z,1.93
2018-02-12T16:29:16.115Z,2.50
2018-02-12T16:31:45.138Z,2.47
2018-02-12T16:34:13.382Z,2.77
2018-02-12T16:36:41.756Z,2.10
2018-02-12T16:39:10.739Z,2.50
2018-02-12T16:41:38.988Z,2.07
2018-02-12T16:44:07.242Z,2.00
2018-02-12T16:46:35.514Z,2.33
2018-02-12T16:49:03.954Z,2.27
2018-02-12T16:51:32.221Z,2.60
2018-02-12T16:54:00.538Z,2.13
2018-02-12T16:56:28.883Z,2.33
2018-02-12T16:58:57.130Z,2.40
2018-02-12T17:01:26.160Z,2.13
2018-02-12T17:03:56.120Z,2.53
2018-02-12T17:06:24.729Z,2.30
2018-02-12T17:08:54.205Z,2.90
2018-02-12T17:11:22.778Z,2.67
2018-02-12T17:13:51.569Z,2.75
2018-02-12T17:16:21.282Z,2.63
2018-02-12T17:18:49.766Z,2.87
2018-02-12T17:21:18.587Z,3.23
2018-02-12T17:23:47.173Z,2.50
2018-02-12T17:26:16.298Z,2.40
2018-02-12T17:28:44.597Z,2.30
2018-02-12T17:31:12.872Z,2.50
2018-02-12T17:33:41.117Z,2.50
2018-02-12T17:36:09.373Z,2.40
2018-02-12T17:38:37.607Z,2.10
2018-02-12T17:41:05.868Z,2.75
2018-02-12T17:43:34.155Z,2.03
2018-02-12T17:46:02.439Z,2.83
2018-02-12T17:48:30.673Z,3.10
2018-02-12T17:50:59.709Z,2.20
2018-02-12T17:53:27.998Z,2.60
2018-02-12T17:55:56.258Z,2.60
2018-02-12T17:58:24.518Z,3.47
2018-02-12T18:00:53.648Z,2.22
2018-02-12T18:03:21.893Z,2.55
2018-02-12T18:05:50.759Z,3.30
2018-02-12T18:08:20.469Z,2.90
2018-02-12T18:10:49.055Z,3.67
2018-02-12T18:13:17.549Z,3.10
2018-02-12T18:15:45.844Z,2.47
2018-02-12T18:18:14.115Z,2.90
2018-02-12T18:20:42.715Z,2.93
2018-02-12T18:23:11.037Z,3.50
2018-02-12T18:25:39.761Z,3.30
2018-02-12T18:28:08.938Z,3.45
2018-02-12T18:30:37.757Z,3.42
2018-02-12T18:33:06.544Z,3.47
2018-02-12T18:35:34.927Z,3.40
2018-02-12T18:38:03.720Z,2.93
2018-02-12T18:40:32.532Z,2.43
2018-02-12T18:43:01.585Z,3.33
2018-02-12T18:45:30.181Z,4.35
2018-02-12T18:47:58.582Z,3.65
2018-02-12T18:50:27.404Z,4.95
2018-02-12T18:52:56.059Z,4.47
2018-02-12T18:55:24.406Z,4.07
2018-02-12T18:57:52.985Z,3.50
2018-02-12T19:00:21.525Z,4.50
2018-02-12T19:02:50.266Z,3.58
2018-02-12T19:05:18.788Z,2.60
2018-02-12T19:07:47.272Z,3.05
2018-02-12T19:10:16.781Z,2.72
2018-02-12T19:12:46.451Z,2.67
2018-02-12T19:15:14.874Z,2.80
2018-02-12T19:17:44.332Z,2.75
2018-02-12T19:20:12.828Z,2.92
2018-02-12T19:22:41.252Z,2.20
2018-02-12T19:25:09.837Z,2.50
2018-02-12T19:27:38.262Z,2.70
2018-02-12T19:30:07.487Z,3.08
2018-02-12T19:32:36.145Z,3.03
2018-02-12T19:35:04.596Z,2.40
2018-02-12T19:37:33.388Z,3.10
2018-02-12T19:40:02.179Z,2.70
2018-02-12T19:42:30.727Z,2.63
2018-02-12T19:44:59.357Z,2.75
2018-02-12T19:47:27.762Z,3.28
2018-02-12T19:49:57.042Z,2.80
2018-02-12T19:52:25.836Z,2.97
2018-02-12T19:54:54.176Z,3.17
2018-02-12T19:57:22.760Z,3.07
2018-02-12T19:59:51.485Z,3.20
2018-02-12T20:02:20.679Z,2.55
2018-02-12T20:04:49.279Z,2.90
2018-02-12T20:07:18.524Z,3.22
2018-02-12T20:09:46.914Z,2.35
2018-02-12T20:12:16.490Z,2.85
2018-02-12T20:14:45.498Z,2.87
2018-02-12T20:17:13.944Z,3.00
2018-02-12T20:19:42.534Z,2.92
2018-02-12T20:22:10.981Z,2.70
2018-02-12T20:24:39.330Z,3.78
2018-02-12T20:27:07.642Z,2.92
2018-02-12T20:29:36.273Z,3.50
2018-02-12T20:32:04.792Z,4.87
2018-02-12T20:34:33.134Z,3.53
2018-02-12T20:37:01.721Z,3.50
2018-02-12T20:39:31.128Z,3.55
2018-02-12T20:41:59.714Z,3.60
2018-02-12T20:44:28.202Z,3.90
2018-02-12T20:46:56.811Z,3.55
2018-02-12T20:49:25.822Z,4.70
2018-02-12T20:51:54.271Z,3.37
2018-02-12T20:54:22.751Z,3.55
2018-02-12T20:56:51.106Z,3.70
2018-02-12T20:59:19.426Z,3.85
2018-02-12T21:01:48.203Z,3.80
2018-02-12T21:04:16.640Z,4.00
2018-02-12T21:06:45.037Z,4.00
2018-02-12T21:09:13.760Z,4.37
2018-02-12T21:11:42.144Z,4.00
2018-02-12T21:14:11.103Z,5.35
2018-02-12T21:16:40.035Z,5.03
2018-02-12T21:19:08.619Z,5.03
2018-02-12T21:21:37.192Z,4.83
2018-02-12T21:24:05.894Z,4.82
2018-02-12T21:26:34.494Z,5.12
2018-02-12T21:29:03.724Z,5.07
2018-02-12T21:31:32.205Z,5.43
2018-02-12T21:34:00.599Z,5.47
2018-02-12T21:36:29.022Z,5.28
2018-02-12T21:38:57.513Z,5.37
2018-02-12T21:41:26.514Z,5.20
2018-02-12T21:43:55.199Z,6.00
2018-02-12T21:46:23.542Z,5.00
2018-02-12T21:48:51.824Z,6.10
2018-02-12T21:51:20.138Z,6.03
2018-02-12T21:53:48.378Z,5.60
2018-02-12T21:56:16.669Z,5.43
2018-02-12T21:58:44.950Z,5.75
2018-02-12T22:01:13.224Z,6.65
2018-02-12T22:03:41.479Z,5.55
2018-02-12T22:06:10.121Z,5.10
2018-02-12T22:08:39.632Z,5.68
2018-02-12T22:11:08.899Z,5.15
2018-02-12T22:13:37.147Z,6.45
2018-02-12T22:16:05.462Z,6.32
2018-02-12T22:18:33.722Z,5.62
2018-02-12T22:21:02.022Z,6.95
2018-02-12T22:23:30.314Z,5.18
2018-02-12T22:25:58.560Z,5.68
2018-02-12T22:28:26.862Z,5.20
2018-02-12T22:30:55.162Z,5.10
2018-02-12T22:33:23.517Z,5.60
2018-02-12T22:35:51.793Z,6.07
2018-02-12T22:38:20.055Z,6.45
2018-02-12T22:40:48.308Z,6.30
2018-02-12T22:43:17.358Z,6.50
2018-02-12T22:45:45.654Z,7.18
2018-02-12T22:48:13.930Z,5.95
2018-02-12T22:50:42.195Z,6.35
2018-02-12T22:53:10.454Z,5.80
2018-02-12T22:55:38.710Z,6.45
2018-02-12T22:58:07.751Z,6.43
2018-02-12T23:00:35.996Z,5.72
2018-02-12T23:03:04.274Z,5.50
2018-02-12T23:05:32.534Z,5.40
2018-02-12T23:08:06.758Z,5.78
2018-02-12T23:10:35.007Z,5.85
2018-02-12T23:13:03.275Z,6.20
2018-02-12T23:15:33.498Z,7.15
2018-02-12T23:18:02.622Z,5.90
2018-02-12T23:20:30.901Z,6.10
2018-02-12T23:22:59.172Z,5.70
2018-02-12T23:25:27.419Z,5.85
2018-02-12T23:27:56.446Z,6.05
2018-02-12T23:30:24.686Z,5.12
2018-02-12T23:32:53.018Z,5.07
2018-02-12T23:35:21.267Z,5.28
2018-02-12T23:37:50.298Z,5.47
2018-02-12T23:40:18.548Z,5.28
2018-02-12T23:42:47.569Z,5.53
2018-02-12T23:45:15.890Z,4.43
2018-02-12T23:47:44.157Z,5.15
2018-02-12T23:50:12.402Z,4.25
2018-02-12T23:52:40.674Z,5.15
2018-02-12T23:55:09.671Z,5.03
2018-02-12T23:57:38.810Z,5.70
